Nearby METAR Reports

 

EIDW - Dublin Airport, Ireland
Distance from station: ENE 79km
Updated: 26/07/2017 15:30
Partly cloudy
Partly cloudy
 Wind from W
Wind: W 33 km/h
Temperature: 18°C
Dew Point: 9°C
Humidity: 56%
Barometer: 1001 hPa
Clouds: Partly cloudy
Visibility: 10 km
Cloud details: Few Clouds 610 m
Partly cloudy 1219 m
2017/07/26 14:30 EIDW 261430Z 27018KT 9999 FEW020 SCT040 18/09 Q1001 NOSIG
EIME - Casement (mil), Ireland
Distance from station: ENE 62km
Updated: 26/07/2017 15:00
Mostly cloudy
Mostly cloudy
 Wind from W
Wind: W 41 km/h
Temperature: 18°C
Dew Point: 7°C
Humidity: 49%
Barometer: 1001 hPa
Clouds: Mostly cloudy
Visibility: 10 km
Cloud details: Few Clouds 762 m
Partly cloudy 1219 m
Mostly cloudy 7620 m
2017/07/26 14:00 EIME 261400Z 26022KT 9999 FEW025 SCT040 BKN250 18/07 Q1001
EIWF - Waterford Arpt, Ireland
Distance from station: S 111km
Updated: 26/07/2017 15:00
Partly cloudy
Partly cloudy
 Wind from WNW
Wind: WNW 19 km/h
Temperature: 19°C
Dew Point: 11°C
Humidity: 60%
Barometer: 1003 hPa
Clouds: Partly cloudy
Visibility: 10 km
Cloud details: Partly cloudy 1128 m
2017/07/26 14:00 EIWF 261400Z 29010KT 200V340 9999 SCT037 19/11 Q1003
 
EINN - Shannon Airport, Ireland
Distance from station: WSW 117km
Updated: 26/07/2017 15:30
Mostly cloudy
Mostly cloudy
 Wind from WSW
Wind: WSW 37 km/h
Temperature: 16°C
Dew Point: 11°C
Humidity: 72%
Barometer: 1003 hPa
Clouds: Mostly cloudy
Visibility: 10 km
Cloud details: Few Clouds 701 m
Partly cloudy 1219 m
Mostly cloudy 1524 m
2017/07/26 14:30 EINN 261430Z 24020KT 9999 FEW023 SCT040 BKN050 16/11 Q1003 NOSIG
EIKN - Connaught Apt, Ireland
Distance from station: NW 127km
Updated: 26/07/2017 15:30
Mostly cloudy
Mostly cloudy
 Wind from WSW
Wind: WSW 26 km/h
Temperature: 16°C
Dew Point: 8°C
Humidity: 59%
Barometer: 999 hPa
Clouds: Mostly cloudy
Visibility: 10 km
Cloud details: Few Clouds 610 m
Mostly cloudy 1006 m
2017/07/26 14:30 EIKN 261430Z 24014KT 210V280 9999 FEW020 BKN033 16/08 Q0999 NOSIG
EISG - Sligo Arpt, Ireland
Distance from station: NNW 148km
Updated: 26/07/2017 15:00
Partly cloudy
Partly cloudy
 Wind from WSW
Wind: WSW 28 km/h
Temperature: 18°C
Dew Point: 10°C
Humidity: 60%
Barometer: 999 hPa
Clouds: Partly cloudy
Visibility: 10 km
Cloud details: Few Clouds 1158 m
Partly cloudy 1341 m
2017/07/26 14:00 EISG 261400Z 24015KT 9999 FEW038 SCT044 18/10 Q0999
 
EICK - Cork Arpt/Corcai, Ireland
Distance from station: SSW 165km
Updated: 26/07/2017 15:30
Mostly cloudy
Mostly cloudy
 Wind from WSW
Wind: WSW 33 km/h
Temperature: 18°C
Dew Point: 9°C
Humidity: 56%
Barometer: 1005 hPa
Clouds: Mostly cloudy
Visibility: 10 km
Cloud details: Partly cloudy 1097 m
Mostly cloudy 1524 m
Mostly cloudy 8534 m
2017/07/26 14:30 EICK 261430Z 25018KT 9999 SCT036 BKN050 BKN280 18/09 Q1005 NOSIG
EGAA - Belfast/Aldergro, United Kingdom
Distance from station: NNE 179km
Updated: 26/07/2017 15:20
Few Clouds
Few Clouds
 Wind from W
Wind: W 30 km/h
Temperature: 18°C
Dew Point: 10°C
Humidity: 60%
Barometer: 999 hPa
Clouds: Few Clouds
Visibility: 10 km
Cloud details: Few Clouds 1158 m
2017/07/26 14:20 EGAA 261420Z 26016KT 9999 FEW038 18/10 Q0999
EIKY - Kerry Arpt, Ireland
Distance from station: SW 182km
Updated: 26/07/2017 14:00
NOT Current
Mostly cloudy
Mostly cloudy
 Wind from W
Wind: W 35 km/h
Temperature: 16°C
Dew Point: 11°C
Humidity: 72%
Barometer: 1005 hPa
Clouds: Mostly cloudy
Visibility: 10 km
Cloud details: Mostly cloudy 853 m
2017/07/26 13:00 EIKY 261300Z 26019KT 9999 BKN028 16/11 Q1005
 
EGAC - Belfast Harbour, United Kingdom
Distance from station: NNE 188km
Updated: 26/07/2017 15:20
Few Clouds
Few Clouds
 Wind from WSW
Wind: WSW 28 km/h, Gust: 48 km/h
Temperature: 19°C
Dew Point: 10°C
Humidity: 56%
Barometer: 998 hPa
Clouds: Few Clouds
Visibility: 10 km
Cloud details: Few Clouds 610 m
2017/07/26 14:20 EGAC 261420Z 25015G26KT 9999 FEW020 19/10 Q0998
EGOV - Valley Raf, United Kingdom
Distance from station: E 188km
Updated: 26/07/2017 14:50
Partly cloudy
Partly cloudy
 Wind from WSW
Wind: WSW 26 km/h
Temperature: 19°C
Dew Point: 12°C
Humidity: 64%
Barometer: 1001 hPa
Clouds: Partly cloudy
Visibility: 10 km
Cloud details: Few Clouds 549 m
Partly cloudy 7620 m
2017/07/26 13:50 EGOV 261350Z 24014KT 9999 FEW018 SCT250 19/12 Q1001 BLU NOSIG
EGNS - Isle Of Man/Rona, United Kingdom
Distance from station: ENE 207km
Updated: 26/07/2017 15:20
Partly cloudy
Partly cloudy
 Wind from W
Wind: W 37 km/h
Temperature: 18°C
Dew Point: 10°C
Humidity: 60%
Barometer: 999 hPa
Clouds: Partly cloudy
Visibility: 10 km
Cloud details: Few Clouds 610 m
Partly cloudy 1372 m
2017/07/26 14:20 EGNS 261420Z 26020KT 9999 FEW020 SCT045 18/10 Q0999 NOSIG